createdAt,value
2023-03-29T00:01:36.649Z,9.98
2023-03-29T00:04:06.442Z,9.68
2023-03-29T00:06:33.917Z,9.27
2023-03-29T00:09:01.780Z,9.82
2023-03-29T00:11:28.355Z,9.38
2023-03-29T00:13:54.897Z,9.40
2023-03-29T00:16:21.666Z,9.48
2023-03-29T00:18:48.132Z,9.38
2023-03-29T00:21:14.517Z,9.18
2023-03-29T00:23:41.012Z,9.50
2023-03-29T00:26:08.456Z,9.52
2023-03-29T00:28:35.418Z,9.20
2023-03-29T00:31:10.629Z,9.13
2023-03-29T00:33:37.390Z,9.18
2023-03-29T00:36:05.031Z,9.48
2023-03-29T00:38:32.024Z,9.90
2023-03-29T00:40:59.312Z,9.63
2023-03-29T00:43:25.926Z,9.32
2023-03-29T00:45:52.595Z,8.95
2023-03-29T00:48:28.072Z,9.88
2023-03-29T00:51:00.172Z,9.55
2023-03-29T00:53:35.723Z,9.55
2023-03-29T00:56:10.004Z,9.90
2023-03-29T01:01:19.352Z,9.30
2023-03-29T01:03:50.423Z,8.93
2023-03-29T01:06:18.939Z,9.82
2023-03-29T01:08:54.195Z,9.05
2023-03-29T01:11:28.905Z,9.02
2023-03-29T01:13:59.770Z,8.75
2023-03-29T01:16:29.001Z,9.10
2023-03-29T01:18:58.170Z,9.38
2023-03-29T01:21:44.551Z,9.02
2023-03-29T01:24:24.719Z,9.52
2023-03-29T01:27:13.711Z,9.25
2023-03-29T01:29:47.916Z,9.43
2023-03-29T01:34:53.172Z,8.95
2023-03-29T01:37:27.729Z,8.97
2023-03-29T01:39:54.331Z,9.07
2023-03-29T01:42:49.198Z,9.98
2023-03-29T01:48:17.264Z,8.20
2023-03-29T01:50:51.829Z,8.32
2023-03-29T01:53:27.094Z,8.98
2023-03-29T01:55:57.100Z,9.38
2023-03-29T01:58:33.589Z,9.45
2023-03-29T02:01:05.634Z,9.45
2023-03-29T02:03:34.302Z,9.57
2023-03-29T02:06:03.028Z,10.20
2023-03-29T02:08:30.305Z,9.32
2023-03-29T02:10:56.713Z,9.40
2023-03-29T02:13:23.278Z,9.98
2023-03-29T02:15:49.749Z,9.77
2023-03-29T02:18:18.484Z,9.85
2023-03-29T02:20:48.381Z,10.10
2023-03-29T02:23:34.152Z,9.25
2023-03-29T02:26:01.814Z,9.15
2023-03-29T02:28:29.685Z,9.57
2023-03-29T02:31:05.588Z,9.43
2023-03-29T02:33:42.693Z,9.30
2023-03-29T02:36:17.557Z,8.90
2023-03-29T02:38:44.910Z,9.63
2023-03-29T02:41:12.047Z,8.63
2023-03-29T02:43:39.698Z,8.32
2023-03-29T02:46:07.686Z,8.50
2023-03-29T02:48:37.401Z,9.18
2023-03-29T02:51:16.882Z,9.27
2023-03-29T02:53:51.934Z,9.27
2023-03-29T02:56:20.102Z,10.27
2023-03-29T02:58:46.831Z,10.10
2023-03-29T03:01:14.682Z,9.98
2023-03-29T03:03:41.284Z,9.85
2023-03-29T03:06:07.866Z,9.77
2023-03-29T03:08:34.295Z,9.95
2023-03-29T03:11:01.120Z,10.60
2023-03-29T03:13:27.659Z,10.25
2023-03-29T03:15:54.124Z,9.57
2023-03-29T03:18:20.768Z,9.27
2023-03-29T03:21:01.924Z,9.55
2023-03-29T03:23:28.840Z,9.38
2023-03-29T03:25:55.290Z,9.48
2023-03-29T03:28:24.106Z,9.52
2023-03-29T03:30:50.675Z,8.90
2023-03-29T03:33:18.070Z,8.90
2023-03-29T03:35:46.259Z,8.88
2023-03-29T03:38:12.872Z,9.35
2023-03-29T03:40:39.241Z,9.15
2023-03-29T03:43:05.692Z,9.27
2023-03-29T03:45:32.243Z,10.48
2023-03-29T03:47:58.619Z,9.50
2023-03-29T03:50:25.060Z,9.90
2023-03-29T03:52:51.898Z,9.55
2023-03-29T03:55:18.297Z,9.77
2023-03-29T03:57:44.730Z,10.35
2023-03-29T04:00:19.459Z,9.60
2023-03-29T04:02:50.783Z,9.82
2023-03-29T04:05:17.349Z,9.20
2023-03-29T04:07:43.790Z,8.55
2023-03-29T04:10:11.300Z,8.20
2023-03-29T04:12:38.545Z,9.48
2023-03-29T04:15:06.015Z,9.23
2023-03-29T04:17:32.469Z,8.27
2023-03-29T04:19:58.871Z,7.60
2023-03-29T04:22:25.711Z,7.45
2023-03-29T04:24:52.389Z,8.27
2023-03-29T04:27:18.918Z,7.70
2023-03-29T04:29:45.357Z,7.70
2023-03-29T04:32:11.788Z,8.02
2023-03-29T04:34:38.289Z,7.45
2023-03-29T04:37:10.422Z,7.88
2023-03-29T04:39:37.481Z,7.25
2023-03-29T04:42:05.043Z,7.88
2023-03-29T04:44:34.890Z,8.60
2023-03-29T04:47:01.392Z,8.73
2023-03-29T04:49:27.815Z,8.32
2023-03-29T04:51:54.735Z,8.48
2023-03-29T04:54:21.461Z,8.82
2023-03-29T04:56:47.923Z,8.40
2023-03-29T04:59:14.341Z,8.73
2023-03-29T05:01:42.038Z,8.55
2023-03-29T05:04:09.269Z,8.15
2023-03-29T05:06:37.238Z,8.20
2023-03-29T05:09:04.806Z,9.38
2023-03-29T05:11:31.585Z,8.52
2023-03-29T05:14:02.306Z,9.45
2023-03-29T05:16:30.314Z,9.00
2023-03-29T05:18:57.390Z,8.25
2023-03-29T05:21:26.040Z,8.13
2023-03-29T05:23:53.204Z,8.32
2023-03-29T05:26:20.597Z,8.52
2023-03-29T05:28:47.526Z,9.23
2023-03-29T05:31:16.806Z,8.48
2023-03-29T05:33:43.941Z,9.10
2023-03-29T05:36:33.149Z,9.02
2023-03-29T05:38:59.788Z,9.98
2023-03-29T05:41:26.234Z,10.98
2023-03-29T05:43:52.582Z,10.18
2023-03-29T05:46:20.314Z,10.82
2023-03-29T05:48:52.095Z,10.73
2023-03-29T05:51:18.978Z,10.10
2023-03-29T05:53:45.418Z,10.82
2023-03-29T05:56:15.836Z,10.63
2023-03-29T05:58:43.029Z,9.50
2023-03-29T06:01:17.897Z,9.95
2023-03-29T06:06:26.691Z,9.82
2023-03-29T06:08:53.137Z,10.10
2023-03-29T06:11:19.658Z,9.85
2023-03-29T06:13:46.097Z,10.50
2023-03-29T06:16:13.331Z,10.35
2023-03-29T06:18:40.969Z,10.55
2023-03-29T06:21:09.088Z,10.20
2023-03-29T06:23:47.606Z,10.25
2023-03-29T06:26:14.253Z,10.23
2023-03-29T06:28:40.600Z,10.55
2023-03-29T06:31:07.228Z,10.48
2023-03-29T06:33:34.213Z,10.93
2023-03-29T06:36:00.705Z,10.55
2023-03-29T06:38:28.344Z,10.52
2023-03-29T06:41:06.735Z,10.55
2023-03-29T06:43:34.664Z,10.50
2023-03-29T06:46:01.868Z,10.88
2023-03-29T06:48:29.282Z,11.25
2023-03-29T06:50:56.356Z,11.18
2023-03-29T06:53:22.989Z,11.15
2023-03-29T06:55:50.855Z,10.75
2023-03-29T06:58:17.269Z,11.38
2023-03-29T07:00:43.660Z,11.27
2023-03-29T07:03:13.359Z,11.40
2023-03-29T07:05:41.935Z,11.18
2023-03-29T07:08:08.592Z,11.45
2023-03-29T07:10:41.069Z,13.48
2023-03-29T07:13:09.236Z,15.30
2023-03-29T07:15:35.919Z,14.80
2023-03-29T07:18:04.603Z,15.65
2023-03-29T07:20:33.753Z,14.07
2023-03-29T07:23:00.709Z,15.45
2023-03-29T07:25:27.639Z,19.58
2023-03-29T07:27:54.025Z,16.05
2023-03-29T07:30:30.233Z,14.55
2023-03-29T07:32:58.607Z,15.18
2023-03-29T07:35:26.684Z,14.05
2023-03-29T07:37:54.825Z,13.98
2023-03-29T07:40:23.523Z,14.57
2023-03-29T07:42:55.167Z,14.45
2023-03-29T07:45:26.542Z,12.95
2023-03-29T07:47:57.023Z,13.30
2023-03-29T07:50:24.060Z,12.82
2023-03-29T07:52:50.960Z,14.07
2023-03-29T07:55:17.431Z,14.00
2023-03-29T07:57:44.522Z,12.02
2023-03-29T08:00:16.511Z,13.15
2023-03-29T08:02:44.878Z,14.93
2023-03-29T08:05:13.632Z,13.35
2023-03-29T08:07:42.419Z,12.98
2023-03-29T08:10:11.678Z,12.88
2023-03-29T08:12:38.409Z,13.57
2023-03-29T08:15:05.520Z,13.40
2023-03-29T08:17:32.954Z,13.32
2023-03-29T08:19:59.532Z,12.60
2023-03-29T08:22:26.036Z,13.32
2023-03-29T08:24:52.892Z,13.15
2023-03-29T08:27:19.514Z,12.73
2023-03-29T08:29:46.231Z,13.35
2023-03-29T08:32:14.115Z,13.52
2023-03-29T08:34:40.711Z,13.68
2023-03-29T08:37:08.465Z,14.15
2023-03-29T08:39:35.050Z,14.35
2023-03-29T08:42:26.500Z,13.27
2023-03-29T08:45:18.649Z,12.23
2023-03-29T08:47:58.566Z,12.85
2023-03-29T08:50:33.594Z,13.18
2023-03-29T08:53:06.322Z,12.90
2023-03-29T08:55:39.949Z,12.52
2023-03-29T08:58:11.962Z,11.32
2023-03-29T09:00:46.867Z,10.43
2023-03-29T09:03:22.974Z,11.60
2023-03-29T09:06:04.871Z,10.40
2023-03-29T09:08:31.652Z,8.70
2023-03-29T09:11:20.532Z,8.70
2023-03-29T09:14:17.386Z,6.72
2023-03-29T09:16:56.140Z,6.60
2023-03-29T09:19:37.213Z,5.90
2023-03-29T09:22:18.948Z,6.07
2023-03-29T09:25:12.252Z,6.88
2023-03-29T09:27:47.509Z,6.55
2023-03-29T09:30:26.094Z,6.53
2023-03-29T09:32:57.345Z,6.38
2023-03-29T09:35:36.321Z,6.57
2023-03-29T09:38:05.693Z,6.50
2023-03-29T09:40:39.827Z,6.60
2023-03-29T09:43:12.407Z,6.90
2023-03-29T09:45:40.796Z,6.85
2023-03-29T09:48:13.671Z,7.53
2023-03-29T09:50:48.554Z,8.23
2023-03-29T09:53:15.830Z,7.32
2023-03-29T09:55:44.720Z,7.70
2023-03-29T09:58:15.225Z,7.50
2023-03-29T10:00:42.540Z,7.75
2023-03-29T10:03:10.689Z,7.47
2023-03-29T10:05:37.934Z,8.40
2023-03-29T10:08:19.618Z,6.70
2023-03-29T10:10:46.966Z,7.15
2023-03-29T10:13:23.664Z,6.57
2023-03-29T10:16:00.178Z,6.78
2023-03-29T10:18:31.552Z,6.45
2023-03-29T10:21:04.142Z,5.65
2023-03-29T10:23:36.873Z,6.38
2023-03-29T10:26:07.735Z,7.88
2023-03-29T10:28:36.633Z,6.68
2023-03-29T10:31:05.944Z,7.55
2023-03-29T10:33:35.155Z,6.75
2023-03-29T10:36:07.067Z,6.13
2023-03-29T10:38:36.303Z,6.30
2023-03-29T10:41:06.770Z,6.85
2023-03-29T10:43:39.163Z,6.20
2023-03-29T10:46:17.875Z,7.30
2023-03-29T10:48:55.725Z,7.18
2023-03-29T10:51:24.140Z,7.38
2023-03-29T10:53:50.764Z,8.52
2023-03-29T10:56:41.178Z,8.82
2023-03-29T10:59:21.508Z,8.05
2023-03-29T11:02:09.663Z,8.27
2023-03-29T11:05:10.463Z,7.85
2023-03-29T11:08:07.985Z,8.13
2023-03-29T11:10:40.833Z,8.65
2023-03-29T11:13:46.907Z,7.68
2023-03-29T11:16:39.271Z,8.65
2023-03-29T11:19:32.267Z,8.70
2023-03-29T11:22:27.900Z,8.60
2023-03-29T11:25:20.058Z,9.30
2023-03-29T11:28:06.609Z,8.70
2023-03-29T11:30:57.949Z,7.50
2023-03-29T11:33:38.696Z,7.45
2023-03-29T11:36:17.619Z,7.80
2023-03-29T11:39:19.409Z,7.45
2023-03-29T11:41:52.467Z,7.88
2023-03-29T11:44:33.397Z,7.38
2023-03-29T11:47:09.751Z,7.40
2023-03-29T11:49:42.277Z,7.53
2023-03-29T11:52:15.878Z,7.25
2023-03-29T11:55:02.636Z,6.55
2023-03-29T11:57:38.428Z,6.78
2023-03-29T12:00:20.445Z,6.45
2023-03-29T12:03:06.654Z,6.18
2023-03-29T12:05:44.060Z,7.97
2023-03-29T12:08:15.208Z,8.38
2023-03-29T12:11:03.792Z,10.00
2023-03-29T12:13:33.478Z,9.75
2023-03-29T12:16:08.763Z,7.78
2023-03-29T12:18:45.746Z,9.90
2023-03-29T12:21:16.059Z,9.98
2023-03-29T12:23:43.825Z,10.77
2023-03-29T12:26:41.926Z,11.75
2023-03-29T12:29:26.876Z,8.82
2023-03-29T12:31:53.262Z,10.70
2023-03-29T12:34:38.463Z,9.60
2023-03-29T12:37:31.905Z,9.10
2023-03-29T12:40:16.562Z,11.60
2023-03-29T12:45:19.251Z,8.15
2023-03-29T12:47:47.441Z,6.25
2023-03-29T12:50:46.203Z,7.28
2023-03-29T12:53:23.936Z,7.72
2023-03-29T12:56:17.880Z,7.22
2023-03-29T12:59:07.517Z,8.43
2023-03-29T13:01:36.907Z,7.10
2023-03-29T13:04:13.596Z,7.68
2023-03-29T13:06:50.526Z,7.72
2023-03-29T13:09:29.810Z,8.57
2023-03-29T13:12:21.231Z,8.05
2023-03-29T13:14:57.837Z,7.18
2023-03-29T13:17:39.700Z,7.40
2023-03-29T13:20:32.088Z,9.82
2023-03-29T13:23:21.913Z,9.20
2023-03-29T13:26:32.509Z,11.75
2023-03-29T13:29:20.778Z,9.77
2023-03-29T13:31:57.500Z,7.63
2023-03-29T13:34:37.626Z,7.28
2023-03-29T13:37:34.657Z,8.15
2023-03-29T13:40:01.687Z,7.25
2023-03-29T13:42:34.138Z,7.90
2023-03-29T13:45:25.167Z,8.23
2023-03-29T13:48:20.511Z,8.15
2023-03-29T13:50:58.511Z,8.80
2023-03-29T13:53:51.778Z,8.30
2023-03-29T13:56:49.191Z,8.10
2023-03-29T13:59:19.877Z,7.97
2023-03-29T14:01:57.788Z,7.00
2023-03-29T14:04:28.358Z,6.38
2023-03-29T14:06:56.643Z,6.25
2023-03-29T14:09:30.771Z,6.93
2023-03-29T14:11:59.848Z,7.75
2023-03-29T14:14:29.666Z,7.13
2023-03-29T14:16:56.701Z,6.72
2023-03-29T14:19:42.137Z,6.68
2023-03-29T14:22:13.584Z,6.25
2023-03-29T14:24:47.974Z,7.03
2023-03-29T14:29:40.615Z,6.68
2023-03-29T14:32:11.349Z,7.80
2023-03-29T14:34:38.881Z,8.48
2023-03-29T14:37:08.883Z,7.05
2023-03-29T14:39:35.937Z,7.10
2023-03-29T14:42:02.566Z,6.90
2023-03-29T14:44:32.998Z,6.88
2023-03-29T14:47:01.493Z,6.90
2023-03-29T14:49:28.733Z,7.05
2023-03-29T14:51:55.723Z,7.82
2023-03-29T14:54:26.203Z,9.23
2023-03-29T14:56:53.743Z,8.38
2023-03-29T14:59:35.170Z,11.05
2023-03-29T15:02:01.555Z,12.57
2023-03-29T15:04:35.538Z,11.23
2023-03-29T15:07:04.213Z,10.27
2023-03-29T15:09:34.598Z,11.02
2023-03-29T15:12:03.083Z,12.30
2023-03-29T15:14:36.772Z,12.38
2023-03-29T15:17:06.929Z,11.77
2023-03-29T15:19:34.257Z,11.85
2023-03-29T15:22:10.936Z,11.13
2023-03-29T15:24:44.481Z,11.10
2023-03-29T15:27:15.715Z,10.75
2023-03-29T15:29:43.491Z,11.68
2023-03-29T15:32:19.910Z,14.18
2023-03-29T15:34:47.287Z,11.30
2023-03-29T15:37:13.788Z,8.98
2023-03-29T15:39:44.034Z,8.57
2023-03-29T15:42:10.961Z,9.10
2023-03-29T15:44:38.571Z,9.32
2023-03-29T15:47:10.708Z,9.65
2023-03-29T15:49:37.086Z,9.10
2023-03-29T15:52:04.136Z,9.15
2023-03-29T15:54:31.592Z,10.57
2023-03-29T15:57:05.385Z,11.15
2023-03-29T15:59:32.137Z,10.95
2023-03-29T16:01:59.426Z,11.40
2023-03-29T16:04:26.192Z,10.88
2023-03-29T16:06:54.568Z,10.68
2023-03-29T16:09:22.353Z,9.25
2023-03-29T16:11:49.687Z,9.60
2023-03-29T16:14:24.157Z,9.93
2023-03-29T16:16:52.264Z,9.98
2023-03-29T16:19:19.443Z,10.25
2023-03-29T16:21:45.884Z,10.63
2023-03-29T16:24:15.193Z,10.52
2023-03-29T16:26:42.526Z,10.65
2023-03-29T16:29:09.283Z,10.73
2023-03-29T16:31:36.400Z,12.60
2023-03-29T16:34:04.133Z,13.20
2023-03-29T16:36:31.860Z,12.80
2023-03-29T16:38:58.869Z,13.35
2023-03-29T16:41:25.716Z,15.07
2023-03-29T16:43:52.043Z,14.10
2023-03-29T16:46:18.486Z,14.18
2023-03-29T16:48:44.832Z,14.05
2023-03-29T16:51:11.211Z,13.80
2023-03-29T16:53:38.024Z,14.57
2023-03-29T16:56:05.155Z,13.60
2023-03-29T16:58:31.911Z,12.43
2023-03-29T17:00:58.366Z,11.52
2023-03-29T17:03:24.821Z,9.95
2023-03-29T17:05:53.217Z,13.43
2023-03-29T17:08:21.051Z,14.35
2023-03-29T17:10:53.234Z,15.63
2023-03-29T17:13:21.122Z,15.05
2023-03-29T17:15:48.759Z,17.63
2023-03-29T17:18:15.200Z,18.20
2023-03-29T17:20:41.510Z,16.45
2023-03-29T17:23:08.745Z,15.32
2023-03-29T17:25:36.406Z,17.75
2023-03-29T17:28:03.542Z,18.77
2023-03-29T17:30:29.990Z,16.67
2023-03-29T17:32:56.652Z,16.92
2023-03-29T17:35:23.079Z,14.38
2023-03-29T17:37:49.454Z,13.82
2023-03-29T17:40:17.135Z,15.55
2023-03-29T17:42:46.327Z,14.65
2023-03-29T17:45:12.716Z,13.48
2023-03-29T17:47:39.106Z,13.20
2023-03-29T17:50:07.003Z,14.55
2023-03-29T17:52:33.753Z,12.98
2023-03-29T17:55:00.213Z,12.68
2023-03-29T17:57:26.657Z,12.27
2023-03-29T17:59:53.363Z,14.02
2023-03-29T18:02:22.473Z,13.88
2023-03-29T18:04:48.940Z,14.27
2023-03-29T18:07:15.800Z,15.70
2023-03-29T18:09:42.525Z,14.05
2023-03-29T18:12:08.947Z,13.88
2023-03-29T18:14:35.545Z,13.20
2023-03-29T18:17:02.447Z,13.25
2023-03-29T18:19:28.955Z,14.95
2023-03-29T18:21:56.127Z,14.63
2023-03-29T18:24:22.471Z,15.48
2023-03-29T18:26:48.809Z,17.50
2023-03-29T18:29:15.430Z,16.75
2023-03-29T18:31:42.673Z,16.65
2023-03-29T18:34:09.233Z,15.75
2023-03-29T18:36:35.696Z,17.15
2023-03-29T18:39:05.693Z,17.13
2023-03-29T18:41:33.638Z,16.38
2023-03-29T18:44:00.763Z,17.58
2023-03-29T18:46:31.683Z,19.70
2023-03-29T18:48:59.417Z,20.80
2023-03-29T18:51:28.000Z,19.05
2023-03-29T18:53:55.932Z,18.20
2023-03-29T18:56:22.453Z,17.70
2023-03-29T18:58:48.968Z,17.10
2023-03-29T19:01:15.579Z,19.25
2023-03-29T19:03:41.981Z,18.20
2023-03-29T19:06:08.505Z,17.85
2023-03-29T19:08:37.233Z,18.52
2023-03-29T19:11:06.404Z,18.08
2023-03-29T19:13:33.127Z,19.55
2023-03-29T19:15:59.705Z,19.10
2023-03-29T19:18:35.351Z,18.77
2023-03-29T19:21:02.328Z,18.77
2023-03-29T19:23:28.753Z,18.70
2023-03-29T19:26:00.026Z,17.98
2023-03-29T19:28:27.296Z,17.00
2023-03-29T19:30:54.443Z,19.00
2023-03-29T19:33:20.881Z,17.15
2023-03-29T19:35:50.488Z,17.83
2023-03-29T19:38:17.212Z,17.92
2023-03-29T19:40:48.602Z,17.98
2023-03-29T19:43:16.676Z,18.27
2023-03-29T19:45:44.076Z,19.52
2023-03-29T19:50:42.693Z,19.15
2023-03-29T19:53:10.304Z,18.73
2023-03-29T19:55:40.015Z,20.73
2023-03-29T19:58:07.028Z,20.17
2023-03-29T20:00:33.454Z,19.95
2023-03-29T20:02:59.815Z,20.67
2023-03-29T20:05:26.699Z,21.55
2023-03-29T20:07:54.160Z,21.35
2023-03-29T20:10:20.897Z,21.35
2023-03-29T20:12:47.744Z,20.38
2023-03-29T20:15:14.321Z,20.33
2023-03-29T20:17:41.280Z,20.85
2023-03-29T20:20:10.024Z,19.42
2023-03-29T20:22:38.031Z,22.38
2023-03-29T20:25:05.393Z,20.92
2023-03-29T20:27:31.956Z,21.45
2023-03-29T20:29:58.308Z,21.45
2023-03-29T20:32:24.738Z,22.02
2023-03-29T20:34:51.233Z,20.48
2023-03-29T20:37:17.586Z,20.67
2023-03-29T20:39:43.907Z,21.08
2023-03-29T20:42:11.103Z,20.90
2023-03-29T20:44:39.032Z,20.50
2023-03-29T20:47:07.946Z,21.35
2023-03-29T20:49:39.184Z,19.33
2023-03-29T20:52:10.539Z,20.17
2023-03-29T20:54:37.295Z,19.92
2023-03-29T20:57:04.860Z,20.73
2023-03-29T20:59:31.232Z,21.02
2023-03-29T21:01:58.341Z,20.98
2023-03-29T21:04:24.841Z,21.20
2023-03-29T21:06:51.293Z,20.95
2023-03-29T21:09:20.855Z,21.75
2023-03-29T21:11:48.536Z,20.40
2023-03-29T21:14:19.339Z,22.67
2023-03-29T21:16:47.240Z,20.98
2023-03-29T21:19:15.367Z,21.08
2023-03-29T21:21:42.667Z,20.35
2023-03-29T21:24:10.538Z,20.90
2023-03-29T21:26:37.237Z,20.70
2023-03-29T21:29:03.787Z,20.75
2023-03-29T21:31:30.373Z,20.92
2023-03-29T21:33:56.736Z,21.25
2023-03-29T21:36:23.742Z,20.40
2023-03-29T21:38:51.413Z,20.95
2023-03-29T21:41:18.640Z,20.98
2023-03-29T21:43:45.355Z,20.23
2023-03-29T21:46:12.400Z,20.42
2023-03-29T21:48:38.847Z,20.33
2023-03-29T21:51:05.758Z,18.95
2023-03-29T21:53:32.337Z,18.25
2023-03-29T21:55:58.677Z,14.90
2023-03-29T21:58:25.023Z,13.02
2023-03-29T22:00:51.737Z,14.07
2023-03-29T22:03:18.148Z,13.70
2023-03-29T22:05:56.005Z,13.27
2023-03-29T22:08:26.125Z,13.80
2023-03-29T22:10:57.685Z,12.18
2023-03-29T22:13:26.004Z,11.10
2023-03-29T22:15:58.582Z,10.18
2023-03-29T22:18:30.033Z,9.70
2023-03-29T22:20:57.456Z,8.80
2023-03-29T22:23:24.781Z,8.48
2023-03-29T22:25:51.256Z,8.13
2023-03-29T22:28:17.656Z,8.23
2023-03-29T22:30:44.136Z,8.00
2023-03-29T22:33:11.130Z,7.85
2023-03-29T22:35:37.549Z,7.43
2023-03-29T22:38:04.037Z,7.70
2023-03-29T22:40:33.101Z,7.50
2023-03-29T22:42:59.780Z,7.10
2023-03-29T22:45:26.150Z,7.18
2023-03-29T22:47:52.595Z,7.25
2023-03-29T22:50:18.944Z,6.88
2023-03-29T22:52:45.540Z,6.82
2023-03-29T22:55:11.860Z,7.18
2023-03-29T22:57:38.186Z,7.32
2023-03-29T23:00:08.660Z,7.68
2023-03-29T23:02:35.287Z,6.93
2023-03-29T23:05:01.855Z,7.30
2023-03-29T23:07:28.263Z,6.88
2023-03-29T23:09:54.674Z,6.45
2023-03-29T23:12:21.113Z,6.70
2023-03-29T23:14:47.456Z,6.38
2023-03-29T23:17:13.787Z,7.03
2023-03-29T23:19:40.105Z,6.93
2023-03-29T23:22:06.519Z,6.75
2023-03-29T23:24:33.286Z,6.55
2023-03-29T23:27:01.002Z,7.20
2023-03-29T23:29:27.575Z,7.60
2023-03-29T23:31:56.621Z,7.43
2023-03-29T23:34:23.057Z,7.85
2023-03-29T23:36:49.374Z,7.93
2023-03-29T23:39:16.115Z,7.45
2023-03-29T23:41:42.428Z,8.50
2023-03-29T23:44:08.815Z,7.75
2023-03-29T23:46:35.470Z,8.52
2023-03-29T23:49:01.851Z,7.90
2023-03-29T23:51:28.348Z,8.13
2023-03-29T23:53:55.699Z,7.80
2023-03-29T23:56:22.893Z,7.72
2023-03-29T23:58:49.488Z,8.25
